createdAt,value
2022-09-30T00:00:42.068Z,9.43
2022-09-30T00:01:46.201Z,7.70
2022-09-30T00:02:48.242Z,9.23
2022-09-30T00:03:51.181Z,8.65
2022-09-30T00:04:53.127Z,9.52
2022-09-30T00:05:59.211Z,7.90
2022-09-30T00:07:01.229Z,8.35
2022-09-30T00:08:04.206Z,8.30
2022-09-30T00:09:08.133Z,8.52
2022-09-30T00:10:12.292Z,10.18
2022-09-30T00:11:16.573Z,8.88
2022-09-30T00:12:19.518Z,10.60
2022-09-30T00:13:22.393Z,12.45
2022-09-30T00:14:26.776Z,10.15
2022-09-30T00:15:28.713Z,11.18
2022-09-30T00:16:34.117Z,9.75
2022-09-30T00:17:36.167Z,10.15
2022-09-30T00:18:39.651Z,10.23
2022-09-30T00:19:42.585Z,10.45
2022-09-30T00:20:44.532Z,9.38
2022-09-30T00:21:47.510Z,13.13
2022-09-30T00:22:49.471Z,15.50
2022-09-30T00:23:52.808Z,9.75
2022-09-30T00:24:56.092Z,13.93
2022-09-30T00:25:59.989Z,15.13
2022-09-30T00:27:02.061Z,10.95
2022-09-30T00:28:07.894Z,12.82
2022-09-30T00:29:10.560Z,11.18
2022-09-30T00:30:13.494Z,13.80
2022-09-30T00:31:17.294Z,12.20
2022-09-30T00:32:20.227Z,13.45
2022-09-30T00:33:22.130Z,11.93
2022-09-30T00:34:25.070Z,12.85
2022-09-30T00:35:27.087Z,13.40
2022-09-30T00:36:30.103Z,14.15
2022-09-30T00:37:33.037Z,12.93
2022-09-30T00:38:34.958Z,12.20
2022-09-30T00:39:38.042Z,12.55
2022-09-30T00:40:41.333Z,13.02
2022-09-30T00:41:44.971Z,13.80
2022-09-30T00:42:46.954Z,13.90
2022-09-30T00:43:53.590Z,14.65
2022-09-30T00:44:57.202Z,14.32
2022-09-30T00:46:01.201Z,13.27
2022-09-30T00:47:03.210Z,16.48
2022-09-30T00:48:10.984Z,14.82
2022-09-30T00:49:17.722Z,13.13
2022-09-30T00:50:27.146Z,13.73
2022-09-30T00:51:32.826Z,12.40
2022-09-30T00:52:36.044Z,16.83
2022-09-30T00:53:45.873Z,13.63
2022-09-30T00:54:48.978Z,13.33
2022-09-30T00:55:57.802Z,13.27
2022-09-30T00:57:03.940Z,16.30
2022-09-30T00:58:10.172Z,15.52
2022-09-30T00:59:17.397Z,15.23
2022-09-30T01:00:19.581Z,16.40
2022-09-30T01:01:23.650Z,18.48
2022-09-30T01:02:25.791Z,13.15
2022-09-30T01:03:31.883Z,14.23
2022-09-30T01:04:35.145Z,14.90
2022-09-30T01:05:38.104Z,13.95
2022-09-30T01:06:40.481Z,18.42
2022-09-30T01:07:43.491Z,17.98
2022-09-30T01:08:45.715Z,14.95
2022-09-30T01:09:49.762Z,16.50
2022-09-30T01:10:53.088Z,15.10
2022-09-30T01:11:56.119Z,17.33
2022-09-30T01:12:58.957Z,20.83
2022-09-30T01:14:05.985Z,21.35
2022-09-30T01:15:09.610Z,17.08
2022-09-30T01:16:39.715Z,15.23
2022-09-30T01:17:52.093Z,16.67
2022-09-30T01:19:09.387Z,16.08
2022-09-30T01:20:41.014Z,16.27
2022-09-30T01:22:15.075Z,15.77
2022-09-30T01:23:47.658Z,16.80
2022-09-30T01:25:18.978Z,15.75
2022-09-30T01:26:52.767Z,20.58
2022-09-30T01:28:26.507Z,14.75
2022-09-30T01:30:05.023Z,15.73
2022-09-30T01:31:23.172Z,15.65
2022-09-30T01:32:40.053Z,16.52
2022-09-30T01:33:53.687Z,17.50
2022-09-30T01:35:10.578Z,16.25
2022-09-30T01:36:39.456Z,19.08
2022-09-30T01:37:48.166Z,18.17
2022-09-30T01:39:02.431Z,17.65
2022-09-30T01:40:11.635Z,16.25
2022-09-30T01:41:23.495Z,18.35
2022-09-30T01:42:35.210Z,18.75
2022-09-30T01:43:47.606Z,21.73
2022-09-30T01:44:58.705Z,18.83
2022-09-30T01:46:07.911Z,18.92
2022-09-30T01:47:19.158Z,17.38
2022-09-30T01:48:25.992Z,16.70
2022-09-30T01:49:37.587Z,20.55
2022-09-30T01:50:48.416Z,18.92
2022-09-30T01:53:07.450Z,19.48
2022-09-30T01:54:17.357Z,17.95
2022-09-30T01:55:28.139Z,18.13
2022-09-30T01:57:44.914Z,20.15
2022-09-30T01:58:54.352Z,19.33
2022-09-30T02:00:04.145Z,17.52
2022-09-30T02:01:18.828Z,17.55
2022-09-30T02:02:27.608Z,17.70
2022-09-30T02:03:35.883Z,17.48
2022-09-30T02:04:42.933Z,18.75
2022-09-30T02:05:53.510Z,18.70
2022-09-30T02:07:00.965Z,18.70
2022-09-30T02:08:11.250Z,18.85
2022-09-30T02:09:17.856Z,18.27
2022-09-30T02:10:24.840Z,20.05
2022-09-30T02:11:29.849Z,20.00
2022-09-30T02:12:36.000Z,17.65
2022-09-30T02:13:44.854Z,19.80
2022-09-30T02:14:51.753Z,19.52
2022-09-30T02:15:58.286Z,18.40
2022-09-30T02:17:06.195Z,18.75
2022-09-30T02:18:19.108Z,19.42
2022-09-30T02:19:28.273Z,20.13
2022-09-30T02:20:34.159Z,21.83
2022-09-30T02:21:41.846Z,18.65
2022-09-30T02:22:49.841Z,19.50
2022-09-30T02:23:57.880Z,18.75
2022-09-30T02:25:04.413Z,18.20
2022-09-30T02:26:11.466Z,16.98
2022-09-30T02:27:21.039Z,20.45
2022-09-30T02:28:27.109Z,22.13
2022-09-30T02:29:33.707Z,20.13
2022-09-30T02:30:38.097Z,19.42
2022-09-30T02:31:45.279Z,20.75
2022-09-30T02:32:51.198Z,21.50
2022-09-30T02:34:01.479Z,22.88
2022-09-30T02:35:08.806Z,18.17
2022-09-30T02:36:17.666Z,20.45
2022-09-30T02:37:24.863Z,19.15
2022-09-30T02:38:31.425Z,18.80
2022-09-30T02:39:42.191Z,23.52
2022-09-30T02:40:48.513Z,19.50
2022-09-30T02:42:00.989Z,19.73
2022-09-30T02:43:05.520Z,20.58
2022-09-30T02:44:08.581Z,22.20
2022-09-30T02:45:16.397Z,20.35
2022-09-30T02:46:27.090Z,22.98
2022-09-30T02:48:44.131Z,17.98
2022-09-30T02:49:52.266Z,20.15
2022-09-30T02:51:03.928Z,20.20
2022-09-30T02:52:13.275Z,17.75
2022-09-30T02:53:24.209Z,21.50
2022-09-30T02:54:34.216Z,20.27
2022-09-30T02:55:49.626Z,20.73
2022-09-30T02:56:55.265Z,21.40
2022-09-30T02:58:05.530Z,21.02
2022-09-30T02:59:07.799Z,20.75
2022-09-30T03:00:13.485Z,24.08
2022-09-30T03:01:17.328Z,20.02
2022-09-30T03:02:21.530Z,19.90
2022-09-30T03:03:28.036Z,22.25
2022-09-30T03:04:35.689Z,20.13
2022-09-30T03:05:39.021Z,20.50
2022-09-30T03:06:42.214Z,20.58
2022-09-30T03:07:44.120Z,22.42
2022-09-30T03:08:47.860Z,22.38
2022-09-30T03:09:49.835Z,21.63
2022-09-30T03:10:53.705Z,24.85
2022-09-30T03:12:07.031Z,22.60
2022-09-30T03:13:38.262Z,20.27
2022-09-30T03:14:57.965Z,19.85
2022-09-30T03:16:15.534Z,21.05
2022-09-30T03:18:09.339Z,21.58
2022-09-30T03:19:27.285Z,21.33
2022-09-30T03:20:44.842Z,20.38
2022-09-30T03:22:05.166Z,19.23
2022-09-30T03:23:27.655Z,19.98
2022-09-30T03:24:40.819Z,22.80
2022-09-30T03:25:54.593Z,20.23
2022-09-30T03:27:07.143Z,20.38
2022-09-30T03:28:20.810Z,20.17
2022-09-30T03:29:32.348Z,23.00
2022-09-30T03:30:43.776Z,19.10
2022-09-30T03:31:58.591Z,18.90
2022-09-30T03:33:09.630Z,19.88
2022-09-30T03:34:21.715Z,21.40
2022-09-30T03:35:31.138Z,23.65
2022-09-30T03:36:42.071Z,20.30
2022-09-30T03:37:50.868Z,22.48
2022-09-30T03:39:02.433Z,19.50
2022-09-30T03:40:10.253Z,20.52
2022-09-30T03:41:20.903Z,24.05
2022-09-30T03:42:27.565Z,22.63
2022-09-30T03:43:33.758Z,19.80
2022-09-30T03:44:41.654Z,22.60
2022-09-30T03:45:51.140Z,19.55
2022-09-30T03:46:57.212Z,19.05
2022-09-30T03:48:05.188Z,24.75
2022-09-30T03:49:10.924Z,18.90
2022-09-30T03:50:19.636Z,22.27
2022-09-30T03:51:24.905Z,21.55
2022-09-30T03:52:31.438Z,18.88
2022-09-30T03:53:40.088Z,24.35
2022-09-30T03:54:48.622Z,22.33
2022-09-30T03:55:54.038Z,21.25
2022-09-30T03:56:56.033Z,21.13
2022-09-30T03:57:59.145Z,20.35
2022-09-30T03:59:01.141Z,21.77
2022-09-30T04:00:06.936Z,21.52
2022-09-30T04:01:17.135Z,20.00
2022-09-30T04:02:20.209Z,24.55
2022-09-30T04:03:23.408Z,22.02
2022-09-30T04:04:26.676Z,20.33
2022-09-30T04:05:28.587Z,20.08
2022-09-30T04:06:31.456Z,23.27
2022-09-30T04:07:35.221Z,21.42
2022-09-30T04:08:38.139Z,24.17
2022-09-30T04:09:40.277Z,20.55
2022-09-30T04:10:43.959Z,21.80
2022-09-30T04:11:45.900Z,21.85
2022-09-30T04:12:48.785Z,19.50
2022-09-30T04:13:50.704Z,20.70
2022-09-30T04:14:53.699Z,24.13
2022-09-30T04:15:55.701Z,22.15
2022-09-30T04:16:58.811Z,19.95
2022-09-30T04:18:00.783Z,21.48
2022-09-30T04:19:04.059Z,24.77
2022-09-30T04:20:06.482Z,22.55
2022-09-30T04:21:11.335Z,20.55
2022-09-30T04:22:13.255Z,19.88
2022-09-30T04:23:17.611Z,20.52
2022-09-30T04:24:20.176Z,21.27
2022-09-30T04:25:23.096Z,25.35
2022-09-30T04:26:25.044Z,18.90
2022-09-30T04:27:30.207Z,23.98
2022-09-30T04:28:32.783Z,21.77
2022-09-30T04:29:35.664Z,19.17
2022-09-30T04:30:38.033Z,21.10
2022-09-30T04:31:41.090Z,18.80
2022-09-30T04:32:45.453Z,22.70
2022-09-30T04:33:48.692Z,19.00
2022-09-30T04:34:50.763Z,20.95
2022-09-30T04:35:55.279Z,20.60
2022-09-30T04:36:57.255Z,22.73
2022-09-30T04:38:00.308Z,19.80
2022-09-30T04:39:04.198Z,20.70
2022-09-30T04:40:09.879Z,22.33
2022-09-30T04:41:16.096Z,20.42
2022-09-30T04:42:19.169Z,19.38
2022-09-30T04:43:23.578Z,21.52
2022-09-30T04:44:26.481Z,19.33
2022-09-30T04:45:28.796Z,18.73
2022-09-30T04:46:31.769Z,19.80
2022-09-30T04:47:34.429Z,20.08
2022-09-30T04:48:37.476Z,21.83
2022-09-30T04:49:39.423Z,19.45
2022-09-30T04:50:43.488Z,20.75
2022-09-30T04:51:46.293Z,18.25
2022-09-30T04:52:49.244Z,18.58
2022-09-30T04:53:51.202Z,17.77
2022-09-30T04:54:55.481Z,19.33
2022-09-30T04:56:01.272Z,18.08
2022-09-30T04:57:04.280Z,17.17
2022-09-30T04:58:06.309Z,19.23
2022-09-30T04:59:09.221Z,19.48
2022-09-30T05:00:12.206Z,16.90
2022-09-30T05:01:17.511Z,18.88
2022-09-30T05:02:19.695Z,18.10
2022-09-30T05:03:22.635Z,21.08
2022-09-30T05:04:24.990Z,20.98
2022-09-30T05:05:27.933Z,18.20
2022-09-30T05:06:29.858Z,19.13
2022-09-30T05:07:32.953Z,20.02
2022-09-30T05:08:35.485Z,21.98
2022-09-30T05:09:38.675Z,18.92
2022-09-30T05:10:42.379Z,20.00
2022-09-30T05:11:45.277Z,17.83
2022-09-30T05:12:47.507Z,19.52
2022-09-30T05:13:51.074Z,20.05
2022-09-30T05:14:53.847Z,18.77
2022-09-30T05:15:57.297Z,19.33
2022-09-30T05:16:59.363Z,20.40
2022-09-30T05:18:02.490Z,20.40
2022-09-30T05:19:04.519Z,19.98
2022-09-30T05:20:10.851Z,21.02
2022-09-30T05:21:13.791Z,19.40
2022-09-30T05:22:16.787Z,20.33
2022-09-30T05:23:19.948Z,21.48
2022-09-30T05:24:23.163Z,20.73
2022-09-30T05:25:25.188Z,21.33
2022-09-30T05:26:29.872Z,20.77
2022-09-30T05:27:31.773Z,22.23
2022-09-30T05:28:34.824Z,22.90
2022-09-30T05:29:36.720Z,22.02
2022-09-30T05:30:39.957Z,20.23
2022-09-30T05:31:42.607Z,21.73
2022-09-30T05:32:46.070Z,24.40
2022-09-30T05:33:48.075Z,26.83
2022-09-30T05:34:51.328Z,21.50
2022-09-30T05:35:53.235Z,21.30
2022-09-30T05:36:56.160Z,26.08
2022-09-30T05:37:58.855Z,26.92
2022-09-30T05:39:01.720Z,22.73
2022-09-30T05:40:04.167Z,21.58
2022-09-30T05:41:08.550Z,20.98
2022-09-30T05:42:14.001Z,23.00
2022-09-30T05:43:17.125Z,19.77
2022-09-30T05:44:20.297Z,21.60
2022-09-30T05:45:22.175Z,20.52
2022-09-30T05:46:37.452Z,20.88
2022-09-30T05:47:50.769Z,22.80
2022-09-30T05:48:54.727Z,21.65
2022-09-30T05:49:56.611Z,21.13
2022-09-30T05:51:01.711Z,21.55
2022-09-30T05:52:05.282Z,22.17
2022-09-30T05:53:07.174Z,26.58
2022-09-30T05:54:10.910Z,21.77
2022-09-30T05:55:13.052Z,23.48
2022-09-30T05:56:16.433Z,25.55
2022-09-30T05:57:21.022Z,21.02
2022-09-30T05:58:24.509Z,23.13
2022-09-30T05:59:26.512Z,23.10
2022-09-30T06:00:29.473Z,22.35
2022-09-30T06:01:32.536Z,20.77
2022-09-30T06:02:38.416Z,22.00
2022-09-30T06:03:41.865Z,23.73
2022-09-30T06:04:43.821Z,23.25
2022-09-30T06:05:46.797Z,21.42
2022-09-30T06:06:48.802Z,23.00
2022-09-30T06:07:51.667Z,21.15
2022-09-30T06:08:53.752Z,22.33
2022-09-30T06:09:56.612Z,22.50
2022-09-30T06:10:59.632Z,24.98
2022-09-30T06:12:03.173Z,22.63
2022-09-30T06:13:07.394Z,23.38
2022-09-30T06:14:10.571Z,22.50
2022-09-30T06:15:12.459Z,21.70
2022-09-30T06:16:16.108Z,26.77
2022-09-30T06:17:18.636Z,23.10
2022-09-30T06:18:21.734Z,20.58
2022-09-30T06:19:24.764Z,23.65
2022-09-30T06:20:26.943Z,23.20
2022-09-30T06:21:30.000Z,22.48
2022-09-30T06:22:35.992Z,21.48
2022-09-30T06:23:39.174Z,23.35
2022-09-30T06:24:41.708Z,22.25
2022-09-30T06:25:44.644Z,21.88
2022-09-30T06:26:47.525Z,23.80
2022-09-30T06:27:50.223Z,23.40
2022-09-30T06:28:54.830Z,22.10
2022-09-30T06:29:57.280Z,22.48
2022-09-30T06:31:00.201Z,22.20
2022-09-30T06:32:03.452Z,22.50
2022-09-30T06:33:05.403Z,21.42
2022-09-30T06:34:08.400Z,20.42
2022-09-30T06:35:10.509Z,23.95
2022-09-30T06:36:13.893Z,22.77
2022-09-30T06:37:16.058Z,22.73
2022-09-30T06:38:18.973Z,24.05
2022-09-30T06:39:20.910Z,22.55
2022-09-30T06:40:24.803Z,21.80
2022-09-30T06:41:27.532Z,19.02
2022-09-30T06:42:30.411Z,21.17
2022-09-30T06:43:41.377Z,20.77
2022-09-30T06:44:53.113Z,22.50
2022-09-30T06:46:07.995Z,21.00
2022-09-30T06:47:23.385Z,20.27
2022-09-30T06:48:37.388Z,21.25
2022-09-30T06:49:49.204Z,24.95
2022-09-30T06:51:01.473Z,21.17
2022-09-30T06:52:05.297Z,20.65
2022-09-30T06:53:11.820Z,21.27
2022-09-30T06:54:14.734Z,21.20
2022-09-30T06:55:16.957Z,21.17
2022-09-30T06:56:20.025Z,21.73
2022-09-30T06:57:24.714Z,20.40
2022-09-30T06:58:27.622Z,20.63
2022-09-30T06:59:29.582Z,21.67
2022-09-30T07:00:33.932Z,20.05
2022-09-30T07:01:35.881Z,20.40
2022-09-30T07:02:39.984Z,18.27
2022-09-30T07:03:45.311Z,19.85
2022-09-30T07:04:48.321Z,21.58
2022-09-30T07:05:57.310Z,18.13
2022-09-30T07:07:00.173Z,16.58
2022-09-30T07:08:02.258Z,20.63
2022-09-30T07:09:05.660Z,17.38
2022-09-30T07:10:08.264Z,19.23
2022-09-30T07:11:14.664Z,17.13
2022-09-30T07:12:17.764Z,20.10
2022-09-30T07:13:19.744Z,16.33
2022-09-30T07:14:23.486Z,17.83
2022-09-30T07:15:25.475Z,16.48
2022-09-30T07:16:29.956Z,19.13
2022-09-30T07:17:32.974Z,17.35
2022-09-30T07:18:34.938Z,17.25
2022-09-30T07:19:37.846Z,16.77
2022-09-30T07:20:40.492Z,15.70
2022-09-30T07:21:43.414Z,14.32
2022-09-30T07:22:46.442Z,17.10
2022-09-30T07:23:49.395Z,17.67
2022-09-30T07:24:51.338Z,18.60
2022-09-30T07:25:56.834Z,15.75
2022-09-30T07:26:58.771Z,15.20
2022-09-30T07:28:02.827Z,17.00
2022-09-30T07:29:05.115Z,15.57
2022-09-30T07:30:14.186Z,16.50
2022-09-30T07:31:33.512Z,14.93
2022-09-30T07:32:37.971Z,16.15
2022-09-30T07:33:41.191Z,13.55
2022-09-30T07:34:43.202Z,19.08
2022-09-30T07:35:53.289Z,16.92
2022-09-30T07:36:56.198Z,13.95
2022-09-30T07:38:00.796Z,16.33
2022-09-30T07:39:06.824Z,16.02
2022-09-30T07:40:10.999Z,15.20
2022-09-30T07:41:15.100Z,16.50
2022-09-30T07:42:22.778Z,15.80
2022-09-30T07:43:28.001Z,16.25
2022-09-30T07:44:31.479Z,15.35
2022-09-30T07:45:33.532Z,13.75
2022-09-30T07:46:39.004Z,18.05
2022-09-30T07:47:42.593Z,13.77
2022-09-30T07:48:47.870Z,17.17
2022-09-30T07:49:49.756Z,14.85
2022-09-30T07:50:55.006Z,14.00
2022-09-30T07:51:59.741Z,14.15
2022-09-30T07:53:01.727Z,14.57
2022-09-30T07:54:06.861Z,13.77
2022-09-30T07:55:09.955Z,15.55
2022-09-30T07:56:12.428Z,13.75
2022-09-30T07:57:15.439Z,11.88
2022-09-30T07:58:17.398Z,12.35
2022-09-30T07:59:21.170Z,14.38
2022-09-30T08:00:41.551Z,12.93
2022-09-30T08:01:46.229Z,11.52
2022-09-30T08:02:50.562Z,12.63
2022-09-30T08:03:55.598Z,10.88
2022-09-30T08:04:57.510Z,16.83
2022-09-30T08:06:05.255Z,11.00
2022-09-30T08:07:08.130Z,11.52
2022-09-30T08:08:10.035Z,12.93
2022-09-30T08:09:13.688Z,10.57
2022-09-30T08:10:18.105Z,12.18
2022-09-30T08:11:20.089Z,11.70
2022-09-30T08:12:23.095Z,13.27
2022-09-30T08:13:25.072Z,11.45
2022-09-30T08:14:28.906Z,14.40
2022-09-30T08:15:31.369Z,12.38
2022-09-30T08:16:34.414Z,10.50
2022-09-30T08:17:37.355Z,10.60
2022-09-30T08:18:40.618Z,12.02
2022-09-30T08:19:44.780Z,10.10
2022-09-30T08:20:47.366Z,11.93
2022-09-30T08:21:51.140Z,10.75
2022-09-30T08:22:53.671Z,10.88
2022-09-30T08:23:57.948Z,12.13
2022-09-30T08:25:01.954Z,11.05
2022-09-30T08:26:05.977Z,13.43
2022-09-30T08:27:08.967Z,11.25
2022-09-30T08:28:12.114Z,9.70
2022-09-30T08:29:20.530Z,9.13
2022-09-30T08:30:36.029Z,10.18
2022-09-30T08:31:38.985Z,12.30
2022-09-30T08:32:42.086Z,10.32
2022-09-30T08:33:45.622Z,9.90
2022-09-30T08:34:48.492Z,8.45
2022-09-30T08:35:50.413Z,9.73
2022-09-30T08:36:56.658Z,12.30
2022-09-30T08:38:01.415Z,10.77
2022-09-30T08:39:05.935Z,9.45
2022-09-30T08:40:20.185Z,9.35
2022-09-30T08:41:42.664Z,10.00
2022-09-30T08:42:58.988Z,8.35
2022-09-30T08:44:15.167Z,9.85
2022-09-30T08:45:26.641Z,9.07
2022-09-30T08:46:42.171Z,8.75
2022-09-30T08:47:49.204Z,11.82
2022-09-30T08:49:03.486Z,7.68
2022-09-30T08:50:16.970Z,9.32
2022-09-30T08:51:31.238Z,10.90
2022-09-30T08:52:48.498Z,7.78
2022-09-30T08:53:52.366Z,8.73
2022-09-30T08:54:56.615Z,8.73
2022-09-30T08:56:02.748Z,9.15
2022-09-30T08:57:05.870Z,7.13
2022-09-30T08:58:17.658Z,8.82
2022-09-30T08:59:30.025Z,10.43
2022-09-30T09:00:33.486Z,8.18
2022-09-30T09:01:39.306Z,8.10
2022-09-30T09:02:46.033Z,11.23
2022-09-30T09:03:49.073Z,7.60
2022-09-30T09:04:52.694Z,8.25
2022-09-30T09:06:05.266Z,11.02
2022-09-30T09:07:13.823Z,7.63
2022-09-30T09:08:25.378Z,8.60
2022-09-30T09:09:43.055Z,7.60
2022-09-30T09:10:48.366Z,7.72
2022-09-30T09:12:05.410Z,7.18
2022-09-30T09:13:19.204Z,8.65
2022-09-30T09:14:35.881Z,7.65
2022-09-30T09:15:52.000Z,7.55
2022-09-30T09:17:10.671Z,8.45
2022-09-30T09:18:33.919Z,6.55
2022-09-30T09:19:39.526Z,7.45
2022-09-30T09:20:53.251Z,9.40
2022-09-30T09:21:58.082Z,7.70
2022-09-30T09:23:03.776Z,7.43
2022-09-30T09:24:15.062Z,8.85
2022-09-30T09:25:21.935Z,9.27
2022-09-30T09:26:26.931Z,6.53
2022-09-30T09:27:37.851Z,8.63
2022-09-30T09:28:48.122Z,7.88
2022-09-30T09:30:11.636Z,7.40
2022-09-30T09:31:17.228Z,6.57
2022-09-30T09:32:20.529Z,7.47
2022-09-30T09:33:29.495Z,8.85
2022-09-30T09:34:34.807Z,7.63
2022-09-30T09:35:49.129Z,9.43
2022-09-30T09:37:02.021Z,6.70
2022-09-30T09:38:26.430Z,7.18
2022-09-30T09:39:46.967Z,7.10
2022-09-30T09:41:05.130Z,6.15
2022-09-30T09:42:26.183Z,7.55
2022-09-30T09:43:52.759Z,8.32
2022-09-30T09:45:00.024Z,6.53
2022-09-30T09:46:13.249Z,8.30
2022-09-30T09:47:19.419Z,8.13
2022-09-30T09:48:22.557Z,6.88
2022-09-30T09:49:34.943Z,6.32
2022-09-30T09:50:52.010Z,7.28
2022-09-30T09:52:15.028Z,8.90
2022-09-30T09:53:31.632Z,8.18
2022-09-30T09:54:43.361Z,8.80
2022-09-30T09:55:49.169Z,5.75
2022-09-30T09:56:53.302Z,8.75
2022-09-30T09:58:11.614Z,6.68
2022-09-30T09:59:19.342Z,8.30
2022-09-30T10:00:43.566Z,6.22
2022-09-30T10:01:53.951Z,6.57
2022-09-30T10:03:01.055Z,7.93
2022-09-30T10:04:17.723Z,5.65
2022-09-30T10:05:30.037Z,9.95
2022-09-30T10:06:44.656Z,8.25
2022-09-30T10:07:48.951Z,6.53
2022-09-30T10:08:57.298Z,7.28
2022-09-30T10:10:23.460Z,6.97
2022-09-30T10:11:29.504Z,6.45
2022-09-30T10:12:32.605Z,5.57
2022-09-30T10:13:47.328Z,6.13
2022-09-30T10:14:55.656Z,5.90
2022-09-30T10:16:00.595Z,7.88
2022-09-30T10:17:04.785Z,6.78
2022-09-30T10:18:18.535Z,8.80
2022-09-30T10:19:23.824Z,5.82
2022-09-30T10:20:32.122Z,7.72
2022-09-30T10:21:36.771Z,6.03
2022-09-30T10:22:39.242Z,5.22
2022-09-30T10:23:44.177Z,4.63
2022-09-30T10:24:46.903Z,6.75
2022-09-30T10:25:58.206Z,7.88
2022-09-30T10:27:03.559Z,5.00
2022-09-30T10:28:23.422Z,6.40
2022-09-30T10:29:29.637Z,3.78
2022-09-30T10:30:42.961Z,6.95
2022-09-30T10:31:47.175Z,6.13
2022-09-30T10:32:49.584Z,4.95
2022-09-30T10:34:01.841Z,9.00
2022-09-30T10:35:07.324Z,5.18
2022-09-30T10:36:19.538Z,5.55
2022-09-30T10:37:23.075Z,8.32
2022-09-30T10:38:29.436Z,6.28
2022-09-30T10:39:36.907Z,5.30
2022-09-30T10:40:39.139Z,5.28
2022-09-30T10:41:42.477Z,4.13
2022-09-30T10:42:47.718Z,7.20
2022-09-30T10:43:53.898Z,6.90
2022-09-30T10:44:57.992Z,9.23
2022-09-30T10:46:24.412Z,7.95
2022-09-30T10:47:32.581Z,6.63
2022-09-30T10:48:38.726Z,5.25
2022-09-30T10:49:49.786Z,5.55
2022-09-30T10:50:53.256Z,6.05
2022-09-30T10:52:01.371Z,6.07
2022-09-30T10:53:12.603Z,4.57
2022-09-30T10:54:45.603Z,4.20
2022-09-30T10:55:47.659Z,4.43
2022-09-30T10:56:54.593Z,5.20
2022-09-30T10:58:03.785Z,8.30
2022-09-30T10:59:19.833Z,6.25
2022-09-30T11:00:23.808Z,3.90
2022-09-30T11:01:32.574Z,5.00
2022-09-30T11:02:42.546Z,5.85
2022-09-30T11:03:56.162Z,7.13
2022-09-30T11:05:13.474Z,6.68
2022-09-30T11:06:15.543Z,5.82
2022-09-30T11:07:26.666Z,6.88
2022-09-30T11:08:33.567Z,7.90
2022-09-30T11:09:44.702Z,7.32
2022-09-30T11:10:54.986Z,4.00
2022-09-30T11:12:02.661Z,4.13
2022-09-30T11:13:11.973Z,4.50
2022-09-30T11:14:30.877Z,5.10
2022-09-30T11:15:41.522Z,4.30
2022-09-30T11:16:58.910Z,5.65
2022-09-30T11:18:13.683Z,4.78
2022-09-30T11:19:23.724Z,3.97
2022-09-30T11:20:30.584Z,2.67
2022-09-30T11:21:41.111Z,3.85
2022-09-30T11:23:57.651Z,10.00
2022-09-30T11:25:07.512Z,3.08
2022-09-30T11:26:26.000Z,3.65
2022-09-30T11:27:42.600Z,4.82
2022-09-30T11:28:59.395Z,3.72
2022-09-30T11:30:12.657Z,5.97
2022-09-30T11:31:25.357Z,4.82
2022-09-30T11:32:48.646Z,3.15
2022-09-30T11:34:00.883Z,3.25
2022-09-30T11:35:19.916Z,3.75
2022-09-30T11:36:32.775Z,5.03
2022-09-30T11:37:51.164Z,5.60
2022-09-30T11:39:05.851Z,3.17
2022-09-30T11:40:32.575Z,6.38
2022-09-30T11:41:40.283Z,5.43
2022-09-30T11:42:48.777Z,2.75
2022-09-30T11:44:01.630Z,4.60
2022-09-30T11:45:17.400Z,4.07
2022-09-30T11:46:37.225Z,2.63
2022-09-30T11:47:54.383Z,3.67
2022-09-30T11:49:15.054Z,3.75
2022-09-30T11:50:33.118Z,3.40
2022-09-30T11:51:45.479Z,2.40
2022-09-30T11:53:00.589Z,3.53
2022-09-30T11:54:19.041Z,4.30
2022-09-30T11:55:57.574Z,3.38
2022-09-30T11:57:07.701Z,4.05
2022-09-30T11:58:39.355Z,6.43
2022-09-30T11:59:41.021Z,2.63
2022-09-30T12:00:51.270Z,4.05
2022-09-30T12:01:59.013Z,3.78
2022-09-30T12:03:10.296Z,2.40
2022-09-30T12:04:19.621Z,4.88
2022-09-30T12:05:27.620Z,6.63
2022-09-30T12:06:35.562Z,3.65
2022-09-30T12:07:45.073Z,4.15
2022-09-30T12:08:59.868Z,3.65
2022-09-30T12:10:09.801Z,5.75
2022-09-30T12:11:19.589Z,2.50
2022-09-30T12:12:21.817Z,2.53
2022-09-30T12:13:27.855Z,4.07
2022-09-30T12:14:35.385Z,5.00
2022-09-30T12:15:40.477Z,4.25
2022-09-30T12:16:44.905Z,3.03
2022-09-30T12:17:51.030Z,2.03
2022-09-30T12:18:58.022Z,5.47
2022-09-30T12:20:06.560Z,3.05
2022-09-30T12:21:18.693Z,4.63
2022-09-30T12:22:25.973Z,2.63
2022-09-30T12:23:36.705Z,4.20
2022-09-30T12:24:43.318Z,5.20
2022-09-30T12:25:51.789Z,3.63
2022-09-30T12:26:55.445Z,5.55
2022-09-30T12:28:25.075Z,5.03
2022-09-30T12:29:50.438Z,3.70
2022-09-30T12:31:02.543Z,5.78
2022-09-30T12:32:22.980Z,5.47
2022-09-30T12:33:40.995Z,6.47
2022-09-30T12:34:56.747Z,6.78
2022-09-30T12:36:33.081Z,4.90
2022-09-30T12:37:47.302Z,5.00
2022-09-30T12:39:25.961Z,5.82
2022-09-30T12:40:44.649Z,7.47
2022-09-30T12:43:28.653Z,5.68
2022-09-30T12:44:57.543Z,4.25
2022-09-30T12:46:20.119Z,5.63
2022-09-30T12:47:37.492Z,7.50
2022-09-30T12:48:44.176Z,5.03
2022-09-30T12:49:48.490Z,5.40
2022-09-30T12:50:53.410Z,8.40
2022-09-30T12:51:59.767Z,5.97
2022-09-30T12:53:16.360Z,5.55
2022-09-30T12:54:25.069Z,5.75
2022-09-30T12:55:31.172Z,6.57
2022-09-30T12:56:37.582Z,4.82
2022-09-30T12:57:42.243Z,6.18
2022-09-30T12:58:52.544Z,7.75
2022-09-30T12:59:57.233Z,6.97
2022-09-30T13:01:04.112Z,7.43
2022-09-30T13:02:09.863Z,6.50
2022-09-30T13:03:18.295Z,7.15
2022-09-30T13:04:36.411Z,6.03
2022-09-30T13:05:53.395Z,7.35
2022-09-30T13:07:19.198Z,5.30
2022-09-30T13:08:36.893Z,4.35
2022-09-30T13:10:01.940Z,7.63
2022-09-30T13:11:06.272Z,4.97
2022-09-30T13:12:27.132Z,5.75
2022-09-30T13:14:39.460Z,6.35
2022-09-30T13:15:43.285Z,6.25
2022-09-30T13:17:25.516Z,4.82
2022-09-30T13:19:04.972Z,5.20
2022-09-30T13:20:43.938Z,8.63
2022-09-30T13:21:47.146Z,7.80
2022-09-30T13:23:00.410Z,6.93
2022-09-30T13:24:04.527Z,4.97
2022-09-30T13:25:14.364Z,5.95
2022-09-30T13:26:40.877Z,7.10
2022-09-30T13:27:45.427Z,6.35
2022-09-30T13:28:48.438Z,6.38
2022-09-30T13:29:51.756Z,6.68
2022-09-30T13:31:12.680Z,5.25
2022-09-30T13:32:32.489Z,5.13
2022-09-30T13:33:46.358Z,5.10
2022-09-30T13:34:56.122Z,4.63
2022-09-30T13:36:07.894Z,3.97
2022-09-30T13:37:40.458Z,4.70
2022-09-30T13:38:42.442Z,4.35
2022-09-30T13:39:49.077Z,4.38
2022-09-30T13:41:03.676Z,7.25
2022-09-30T13:42:15.214Z,5.32
2022-09-30T13:43:23.592Z,7.35
2022-09-30T13:44:34.400Z,6.50
2022-09-30T13:46:49.815Z,4.43
2022-09-30T13:48:03.308Z,6.70
2022-09-30T13:49:14.202Z,4.13
2022-09-30T13:50:22.466Z,4.55
2022-09-30T13:51:29.024Z,3.53
2022-09-30T13:52:35.072Z,7.05
2022-09-30T13:53:45.888Z,6.18
2022-09-30T13:55:00.185Z,5.18
2022-09-30T13:56:22.097Z,7.93
2022-09-30T13:57:35.158Z,5.78
2022-09-30T13:59:23.291Z,7.68
2022-09-30T14:00:33.968Z,5.63
2022-09-30T14:02:07.118Z,9.88
2022-09-30T14:03:39.423Z,6.45
2022-09-30T14:04:59.238Z,7.88
2022-09-30T14:06:22.364Z,6.03
2022-09-30T14:07:42.253Z,5.60
2022-09-30T14:09:17.449Z,5.32
2022-09-30T14:10:43.447Z,6.82
2022-09-30T14:12:21.247Z,8.13
2022-09-30T14:13:53.743Z,9.48
2022-09-30T14:15:37.910Z,7.78
2022-09-30T14:17:20.784Z,8.77
2022-09-30T14:18:54.430Z,7.78
2022-09-30T14:20:27.529Z,10.18
2022-09-30T14:21:45.496Z,7.50
2022-09-30T14:22:49.766Z,8.68
2022-09-30T14:24:04.494Z,8.45
2022-09-30T14:25:24.034Z,7.18
2022-09-30T14:26:53.358Z,10.10
2022-09-30T14:28:19.892Z,8.65
2022-09-30T14:29:41.523Z,8.63
2022-09-30T14:31:10.892Z,8.52
2022-09-30T14:32:25.997Z,7.03
2022-09-30T14:33:42.648Z,7.35
2022-09-30T14:34:47.128Z,6.50
2022-09-30T14:35:59.132Z,5.97
2022-09-30T14:37:08.420Z,6.35
2022-09-30T14:38:20.038Z,6.93
2022-09-30T14:39:26.208Z,7.57
2022-09-30T14:40:32.054Z,8.43
2022-09-30T14:41:34.787Z,7.00
2022-09-30T14:42:41.142Z,11.95
2022-09-30T14:43:47.931Z,6.38
2022-09-30T14:44:51.064Z,6.68
2022-09-30T14:45:56.179Z,13.20
2022-09-30T14:47:01.386Z,9.15
2022-09-30T14:48:11.688Z,7.68
2022-09-30T14:49:16.628Z,6.50
2022-09-30T14:50:24.448Z,9.27
2022-09-30T14:51:27.490Z,7.15
2022-09-30T14:52:39.338Z,8.18
2022-09-30T14:53:52.680Z,6.82
2022-09-30T14:54:58.929Z,7.82
2022-09-30T14:56:04.863Z,13.05
2022-09-30T14:57:16.655Z,7.32
2022-09-30T14:58:28.566Z,8.38
2022-09-30T14:59:34.346Z,6.07
2022-09-30T15:00:37.917Z,6.75
2022-09-30T15:01:42.652Z,7.75
2022-09-30T15:02:46.339Z,7.00
2022-09-30T15:03:55.459Z,8.23
2022-09-30T15:05:01.366Z,11.50
2022-09-30T15:06:18.548Z,10.10